Time;durP1;ratioP1;P1;durP2;ratioP2;P2;SDS_P1;SDS_P2;PMS_P1;PMS_P2;Temp;Humidity;BMP_temperature;BMP_pressure;BME280_temperature;BME280_humidity;BME280_pressure;Samples;Min_cycle;Max_cycle;Signal;HPM_P1;HPM_P2
2024/04/01 00:00:40;;;;;;;13.27;7.97;;;9.80;99.90;9.60;98669.00;;;;4888974;28;120489;-66
2024/04/01 00:03:06;;;;;;;14.63;7.83;;;9.80;99.90;9.60;98672.00;;;;4891314;28;93120;-65
2024/04/01 00:05:32;;;;;;;12.60;6.90;;;9.70;99.90;9.50;98659.00;;;;4891986;28;93154;-66
2024/04/01 00:07:58;;;;;;;10.50;5.77;;;9.70;99.90;9.50;98663.00;;;;4890728;28;123239;-66
2024/04/01 00:10:24;;;;;;;21.43;7.20;;;9.60;99.90;9.50;98668.00;;;;4892739;28;93008;-66
2024/04/01 00:12:50;;;;;;;11.77;7.13;;;9.60;99.90;9.40;98668.00;;;;4893140;28;93609;-66
2024/04/01 00:15:16;;;;;;;16.40;7.80;;;10.00;99.90;9.40;98665.00;;;;4891256;28;94448;-66
2024/04/01 00:17:43;;;;;;;16.13;7.83;;;9.50;99.90;9.40;98658.00;;;;4891728;28;94003;-65
2024/04/01 00:20:09;;;;;;;11.03;6.77;;;9.40;99.90;9.30;98654.00;;;;4890603;28;110005;-66
2024/04/01 00:22:34;;;;;;;22.30;8.00;;;9.40;99.90;9.30;98647.00;;;;4891381;28;103578;-65
2024/04/01 00:25:00;;;;;;;15.37;7.00;;;9.40;99.90;9.20;98643.00;;;;4892053;28;109478;-66
2024/04/01 00:27:26;;;;;;;11.47;7.10;;;9.20;99.90;9.20;98635.00;;;;4892218;28;93174;-66
2024/04/01 00:29:52;;;;;;;19.27;7.37;;;9.30;99.90;9.20;98621.00;;;;4891604;28;93430;-65
2024/04/01 00:32:17;;;;;;;8.37;6.40;;;9.20;99.90;9.10;98612.00;;;;4893070;28;110408;-66
2024/04/01 00:34:43;;;;;;;15.43;7.60;;;9.20;99.90;9.10;98604.00;;;;4891035;28;108382;-66
2024/04/01 00:37:09;;;;;;;17.73;9.23;;;9.20;99.90;9.10;98591.00;;;;4890634;28;93257;-66
2024/04/01 00:39:34;;;;;;;15.13;7.20;;;9.20;99.90;9.10;98593.00;;;;4891167;28;120744;-66
2024/04/01 00:42:00;;;;;;;12.97;8.23;;;9.20;99.90;9.00;98582.00;;;;4890042;28;95338;-66
2024/04/01 00:44:26;;;;;;;20.83;8.77;;;9.10;99.90;9.00;98568.00;;;;4892078;28;109377;-65
2024/04/01 00:46:52;;;;;;;17.43;7.67;;;9.10;99.90;9.00;98568.00;;;;4891119;28;123095;-65
2024/04/01 00:49:19;;;;;;;14.80;7.87;;;9.10;99.90;9.00;98576.00;;;;4888878;28;120646;-66
2024/04/01 00:51:45;;;;;;;27.17;7.80;;;9.10;99.90;9.00;98572.00;;;;4888676;28;109240;-65
2024/04/01 00:54:13;;;;;;;17.00;7.87;;;9.10;99.90;9.00;98581.00;;;;4888541;28;107884;-65
2024/04/01 00:56:41;;;;;;;19.10;7.57;;;9.10;99.90;9.00;98579.00;;;;4890886;28;112157;-65
2024/04/01 00:59:07;;;;;;;22.90;7.10;;;9.10;99.90;9.00;98580.00;;;;4888679;28;107933;-66
2024/04/01 01:01:34;;;;;;;15.77;8.07;;;9.10;99.90;9.00;98575.00;;;;4890648;28;108908;-67
2024/04/01 01:04:03;;;;;;;18.33;8.20;;;9.00;99.90;9.00;98587.00;;;;4889914;28;107986;-67
2024/04/01 01:06:30;;;;;;;14.00;7.20;;;9.00;99.90;8.90;98591.00;;;;4889908;28;93519;-67
2024/04/01 01:08:57;;;;;;;14.80;8.37;;;9.20;99.90;8.90;98599.00;;;;4887850;28;94468;-66
2024/04/01 01:11:24;;;;;;;16.97;9.43;;;9.00;99.90;8.90;98594.00;;;;4891405;28;92999;-66
2024/04/01 01:13:49;;;;;;;14.10;7.83;;;9.00;99.90;8.90;98602.00;;;;4890364;28;95371;-66
2024/04/01 01:16:15;;;;;;;11.00;7.93;;;9.00;99.90;8.90;98603.00;;;;4892843;28;105684;-65
2024/04/01 01:18:41;;;;;;;18.73;7.63;;;9.00;99.90;8.90;98602.00;;;;4892876;28;95802;-65
2024/04/01 01:21:08;;;;;;;12.93;7.63;;;9.00;99.90;8.80;98599.00;;;;4886658;28;110531;-65
2024/04/01 01:23:34;;;;;;;17.33;7.20;;;9.00;99.90;8.80;98600.00;;;;4892403;28;94262;-65
2024/04/01 01:26:00;;;;;;;13.80;8.37;;;8.90;99.90;8.80;98590.00;;;;4888140;28;92667;-66
2024/04/01 01:28:27;;;;;;;12.07;8.17;;;9.00;99.90;8.80;98590.00;;;;4889256;28;118962;-65
2024/04/01 01:30:53;;;;;;;15.27;9.20;;;9.00;99.90;8.90;98592.00;;;;4891466;28;94303;-65
2024/04/01 01:33:18;;;;;;;10.87;7.00;;;9.00;99.90;8.80;98579.00;;;;4904379;28;93824;-65
2024/04/01 01:35:44;;;;;;;14.03;8.77;;;8.90;99.90;8.80;98569.00;;;;4889967;28;123393;-65
2024/04/01 01:38:12;;;;;;;11.07;8.13;;;8.90;99.90;8.90;98566.00;;;;4892379;28;123584;-65
2024/04/01 01:40:39;;;;;;;16.03;8.17;;;9.00;99.90;8.80;98571.00;;;;4891081;28;94227;-65
2024/04/01 01:43:04;;;;;;;17.10;7.23;;;9.00;99.90;8.90;98566.00;;;;4890345;28;92958;-66
2024/04/01 01:45:30;;;;;;;18.10;8.57;;;9.00;99.90;8.90;98564.00;;;;4891719;28;103701;-66
2024/04/01 01:47:56;;;;;;;12.63;6.80;;;9.00;99.90;8.90;98562.00;;;;4887242;28;101585;-65
2024/04/01 01:50:22;;;;;;;10.17;5.63;;;9.00;99.90;8.90;98555.00;;;;4892954;28;92207;-66
2024/04/01 01:52:49;;;;;;;12.90;6.63;;;9.00;99.90;8.90;98540.00;;;;4890627;28;93162;-65
2024/04/01 01:55:15;;;;;;;18.13;8.10;;;9.00;99.90;8.90;98523.00;;;;4893948;28;112562;-66
2024/04/01 01:57:40;;;;;;;14.00;7.60;;;9.00;99.90;8.90;98521.00;;;;4893228;28;93935;-66
2024/04/01 02:00:13;;;;;;;10.40;6.53;;;9.10;99.90;9.00;98512.00;;;;4890693;28;110300;-66
2024/04/01 02:02:42;;;;;;;12.07;6.87;;;9.00;99.90;8.90;98498.00;;;;4894960;28;93067;-66
2024/04/01 02:05:08;;;;;;;14.20;7.23;;;9.00;99.90;8.90;98493.00;;;;4891229;28;112417;-66
2024/04/01 02:07:35;;;;;;;9.73;6.13;;;9.00;99.90;9.00;98492.00;;;;4894323;28;115088;-66
2024/04/01 02:10:03;;;;;;;18.20;7.53;;;9.00;99.90;9.00;98503.00;;;;4895585;28;93034;-67
2024/04/01 02:12:29;;;;;;;18.83;8.67;;;9.10;99.90;9.00;98493.00;;;;4892971;28;93069;-66
2024/04/01 02:14:55;;;;;;;24.37;7.77;;;9.20;99.90;9.00;98496.00;;;;4894605;28;95218;-66
2024/04/01 02:17:21;;;;;;;15.30;7.07;;;9.00;99.90;8.90;98494.00;;;;4893572;28;97371;-67
2024/04/01 02:19:47;;;;;;;12.53;8.00;;;9.00;99.90;8.90;98506.00;;;;4892832;28;93061;-67
2024/04/01 02:22:14;;;;;;;19.10;8.00;;;9.00;99.90;8.90;98517.00;;;;4892726;28;108038;-66
2024/04/01 02:24:41;;;;;;;10.13;6.47;;;8.90;99.90;8.90;98513.00;;;;4893204;28;94154;-67
2024/04/01 02:27:09;;;;;;;13.80;7.73;;;9.00;99.90;8.90;98530.00;;;;4893457;28;93967;-65
2024/04/01 02:29:35;;;;;;;16.40;7.27;;;9.00;99.90;8.80;98517.00;;;;4893226;28;93165;-66
2024/04/01 02:32:01;;;;;;;20.93;7.00;;;8.90;99.90;8.80;98530.00;;;;4894672;28;93031;-65
2024/04/01 02:34:26;;;;;;;15.63;7.37;;;8.90;99.90;8.80;98524.00;;;;4892067;28;116111;-66
2024/04/01 02:36:52;;;;;;;8.23;6.47;;;8.90;99.90;8.80;98524.00;;;;4892239;28;93376;-66
2024/04/01 02:39:18;;;;;;;15.13;7.27;;;8.90;99.90;8.80;98513.00;;;;4892622;28;111670;-66
2024/04/01 02:41:45;;;;;;;8.03;5.97;;;8.90;99.90;8.80;98519.00;;;;4837874;28;108396;-66
2024/04/01 02:44:10;;;;;;;13.47;7.73;;;9.50;99.90;8.80;98524.00;;;;4890298;28;93862;-66
2024/04/01 02:46:36;;;;;;;6.67;5.80;;;8.90;99.90;8.80;98522.00;;;;4891935;28;111211;-66
2024/04/01 02:49:02;;;;;;;15.57;5.80;;;8.90;99.90;8.80;98521.00;;;;4893612;28;92997;-65
2024/04/01 02:51:28;;;;;;;13.80;7.23;;;8.90;99.90;8.80;98521.00;;;;4893958;28;108694;-65
2024/04/01 02:53:54;;;;;;;9.67;5.80;;;8.90;99.90;8.80;98517.00;;;;4894048;28;94398;-66
2024/04/01 02:56:20;;;;;;;24.80;9.00;;;8.90;99.90;8.90;98510.00;;;;4894448;28;93054;-66
2024/04/01 02:58:45;;;;;;;18.67;6.97;;;8.90;99.90;8.90;98518.00;;;;4892542;28;110851;-65
2024/04/01 03:01:11;;;;;;;16.00;7.73;;;9.50;99.90;8.90;98519.00;;;;4891957;28;93012;-65
2024/04/01 03:03:37;;;;;;;10.27;7.00;;;8.90;99.90;8.90;98511.00;;;;4892533;28;93267;-67
2024/04/01 03:06:04;;;;;;;18.57;6.30;;;8.90;99.90;8.90;98516.00;;;;4892777;28;92817;-65
2024/04/01 03:08:30;;;;;;;13.50;6.33;;;9.00;99.90;8.90;98516.00;;;;4893763;28;93177;-65
2024/04/01 03:11:03;;;;;;;23.17;6.73;;;9.00;99.90;8.90;98514.00;;;;4891480;28;108930;-66
2024/04/01 03:13:30;;;;;;;7.40;6.10;;;8.90;99.90;8.90;98511.00;;;;4892837;28;94428;-65
2024/04/01 03:15:57;;;;;;;15.47;5.63;;;9.00;99.90;8.90;98500.00;;;;4893417;28;93098;-67
2024/04/01 03:18:24;;;;;;;13.60;6.07;;;9.00;99.90;8.90;98501.00;;;;4893156;28;93007;-66
2024/04/01 03:20:52;;;;;;;10.20;6.57;;;9.00;99.90;9.00;98503.00;;;;4895510;28;92812;-65
2024/04/01 03:23:18;;;;;;;13.13;5.40;;;9.10;99.90;9.00;98502.00;;;;4893420;28;93399;-66
2024/04/01 03:25:53;;;;;;;19.20;7.07;;;9.10;99.90;9.00;98497.00;;;;4892127;28;94236;-65
2024/04/01 03:28:19;;;;;;;11.03;6.37;;;9.10;99.90;9.00;98489.00;;;;4893367;28;92127;-66
2024/04/01 03:30:46;;;;;;;7.93;5.27;;;9.10;99.90;9.00;98483.00;;;;4894657;28;92961;-66
2024/04/01 03:33:12;;;;;;;23.67;6.07;;;9.10;99.90;9.00;98479.00;;;;4889394;28;105510;-65
2024/04/01 03:35:39;;;;;;;20.00;7.00;;;9.10;99.90;9.00;98471.00;;;;4892082;28;97989;-66
2024/04/01 03:38:06;;;;;;;9.80;5.47;;;9.10;99.90;9.00;98473.00;;;;4892145;28;92926;-66
2024/04/01 03:40:32;;;;;;;7.50;5.20;;;9.10;99.90;9.00;98463.00;;;;4891402;28;93011;-65
2024/04/01 03:42:57;;;;;;;21.93;7.20;;;9.10;99.90;9.00;98458.00;;;;4890079;28;111626;-66
2024/04/01 03:45:23;;;;;;;10.37;5.23;;;9.10;99.90;9.00;98450.00;;;;4890484;28;121139;-65
2024/04/01 03:47:51;;;;;;;10.33;5.47;;;9.10;99.90;9.00;98447.00;;;;4891732;28;109952;-65
2024/04/01 03:50:17;;;;;;;15.60;5.73;;;9.10;99.90;9.00;98434.00;;;;4892531;28;94062;-65
2024/04/01 03:52:43;;;;;;;8.77;5.13;;;9.00;99.90;9.00;98437.00;;;;4890464;28;122043;-66
2024/04/01 03:55:08;;;;;;;11.93;6.37;;;9.00;99.90;8.90;98432.00;;;;4887610;28;121834;-65
2024/04/01 03:57:34;;;;;;;18.50;4.97;;;9.00;99.90;8.90;98424.00;;;;4893158;28;93251;-65
2024/04/01 04:00:00;;;;;;;12.10;5.87;;;9.00;99.90;8.90;98432.00;;;;4892584;28;93837;-65
2024/04/01 04:02:25;;;;;;;19.10;6.30;;;9.00;99.90;8.90;98415.00;;;;4889504;28;122766;-65
2024/04/01 04:04:51;;;;;;;13.50;5.77;;;9.00;99.90;8.90;98419.00;;;;4888865;28;122714;-65
2024/04/01 04:07:17;;;;;;;14.70;6.50;;;9.00;99.90;8.90;98410.00;;;;4889012;28;110220;-67
2024/04/01 04:09:42;;;;;;;16.07;6.90;;;9.00;99.90;8.90;98408.00;;;;4890607;28;108258;-67
2024/04/01 04:12:09;;;;;;;13.50;5.87;;;9.00;99.90;8.90;98407.00;;;;4891232;28;123081;-67
2024/04/01 04:14:35;;;;;;;18.73;6.90;;;9.30;99.90;8.90;98395.00;;;;4894875;28;93874;-65
2024/04/01 04:17:01;;;;;;;12.73;5.77;;;9.00;99.90;8.90;98395.00;;;;4892094;28;110241;-65
2024/04/01 04:19:26;;;;;;;25.10;7.23;;;8.90;99.90;8.90;98376.00;;;;4891632;28;108627;-68
2024/04/01 04:21:53;;;;;;;8.33;5.07;;;8.90;99.90;8.90;98370.00;;;;4891976;28;121962;-67
2024/04/01 04:24:19;;;;;;;15.30;4.73;;;9.00;99.90;8.90;98372.00;;;;4892637;28;94093;-66
2024/04/01 04:26:45;;;;;;;12.80;5.93;;;8.90;99.90;8.90;98381.00;;;;4891922;28;110583;-65
2024/04/01 04:29:10;;;;;;;14.27;5.27;;;8.90;99.90;9.00;98389.00;;;;4891275;28;109266;-65
2024/04/01 04:31:36;;;;;;;15.37;4.20;;;9.00;99.90;9.00;98403.00;;;;4892347;28;122734;-66
2024/04/01 04:34:02;;;;;;;11.87;5.10;;;9.00;99.90;9.00;98416.00;;;;4890800;28;123430;-65
2024/04/01 04:36:27;;;;;;;9.80;5.87;;;9.10;99.90;9.10;98425.00;;;;4891754;28;108812;-65
2024/04/01 04:38:53;;;;;;;10.10;5.67;;;9.10;99.90;9.10;98423.00;;;;4893618;28;107175;-64
2024/04/01 04:41:21;;;;;;;9.70;4.30;;;9.10;99.90;9.10;98407.00;;;;4891152;28;93546;-67
2024/04/01 04:43:46;;;;;;;12.50;5.43;;;9.20;99.90;9.20;98404.00;;;;4892849;28;93279;-66
2024/04/01 04:46:13;;;;;;;13.97;5.33;;;9.20;99.90;9.20;98394.00;;;;4893978;28;92794;-67
2024/04/01 04:48:44;;;;;;;12.53;4.40;;;9.20;99.90;9.20;98400.00;;;;4892058;28;93961;-67
2024/04/01 04:51:10;;;;;;;10.43;5.03;;;9.30;99.90;9.30;98401.00;;;;4892329;28;95333;-67
2024/04/01 04:53:37;;;;;;;5.63;3.93;;;9.30;99.90;9.30;98404.00;;;;4893757;28;93031;-66
2024/04/01 04:56:04;;;;;;;16.90;4.37;;;9.40;99.90;9.30;98403.00;;;;4892429;28;92986;-67
2024/04/01 04:58:33;;;;;;;7.67;5.07;;;9.40;99.90;9.30;98396.00;;;;4893512;28;92916;-66
2024/04/01 05:01:05;;;;;;;8.70;4.77;;;9.40;99.90;9.40;98385.00;;;;4891418;28;112479;-66
2024/04/01 05:03:32;;;;;;;17.17;5.70;;;9.40;99.90;9.40;98398.00;;;;4891910;28;92996;-67
2024/04/01 05:05:59;;;;;;;13.90;4.97;;;9.50;99.90;9.40;98399.00;;;;4892411;28;92212;-66
2024/04/01 05:08:25;;;;;;;15.87;4.53;;;9.50;99.90;9.40;98393.00;;;;4891530;28;93018;-66
2024/04/01 05:10:50;;;;;;;11.77;5.40;;;9.50;99.90;9.40;98386.00;;;;4889583;28;107989;-67
2024/04/01 05:13:16;;;;;;;10.63;4.93;;;9.50;99.90;9.40;98370.00;;;;4874476;28;122390;-66
2024/04/01 05:15:42;;;;;;;13.77;5.23;;;9.50;99.90;9.40;98356.00;;;;4891391;28;108683;-66
2024/04/01 05:18:08;;;;;;;15.57;5.63;;;9.50;99.90;9.40;98371.00;;;;4890877;28;92928;-65
2024/04/01 05:20:33;;;;;;;9.53;4.80;;;9.50;99.90;9.40;98381.00;;;;4892252;28;123948;-65
2024/04/01 05:22:59;;;;;;;10.23;5.13;;;9.40;99.90;9.30;98364.00;;;;4889589;28;122569;-65
2024/04/01 05:25:25;;;;;;;11.07;5.27;;;9.40;99.90;9.30;98377.00;;;;4891036;28;109894;-65
2024/04/01 05:27:50;;;;;;;12.13;4.83;;;9.40;99.90;9.30;98383.00;;;;4889857;28;109339;-65
2024/04/01 05:30:19;;;;;;;17.73;4.97;;;9.40;99.90;9.30;98373.00;;;;4890963;28;120221;-65
2024/04/01 05:32:44;;;;;;;24.70;5.97;;;9.30;99.90;9.20;98371.00;;;;4893496;28;93354;-65
2024/04/01 05:35:12;;;;;;;8.57;4.37;;;9.30;99.90;9.20;98378.00;;;;4890605;28;109294;-65
2024/04/01 05:37:37;;;;;;;17.60;5.70;;;9.30;99.90;9.20;98401.00;;;;4892494;28;93839;-65
2024/04/01 05:40:04;;;;;;;12.27;6.00;;;9.30;99.90;9.20;98404.00;;;;4889939;28;122525;-65
2024/04/01 05:42:30;;;;;;;12.07;5.40;;;9.30;99.90;9.30;98411.00;;;;4892282;28;93288;-65
2024/04/01 05:44:55;;;;;;;8.43;4.37;;;9.30;99.90;9.30;98408.00;;;;4888735;28;110879;-66
2024/04/01 05:47:21;;;;;;;12.80;5.60;;;9.40;99.90;9.40;98404.00;;;;4887851;28;110622;-65
2024/04/01 05:49:47;;;;;;;8.77;4.00;;;9.40;99.90;9.40;98393.00;;;;4885221;28;121783;-66
2024/04/01 05:52:12;;;;;;;6.53;4.27;;;9.40;99.90;9.40;98407.00;;;;4886192;28;93108;-66
2024/04/01 05:54:38;;;;;;;12.73;5.57;;;9.40;99.90;9.50;98410.00;;;;4885873;28;109444;-66
2024/04/01 05:57:04;;;;;;;11.67;4.87;;;9.50;99.90;9.50;98415.00;;;;4887257;28;108415;-65
2024/04/01 05:59:30;;;;;;;35.63;6.37;;;9.50;99.90;9.60;98413.00;;;;4886343;28;121858;-65
2024/04/01 06:01:56;;;;;;;10.50;4.73;;;9.60;99.90;9.60;98442.00;;;;4883850;28;123001;-65
2024/04/01 06:04:23;;;;;;;15.93;4.90;;;9.70;99.90;9.70;98451.00;;;;4885991;28;93245;-68
2024/04/01 06:06:50;;;;;;;13.33;4.67;;;9.70;99.90;9.80;98450.00;;;;4887325;28;93252;-65
2024/04/01 06:09:17;;;;;;;16.73;5.70;;;9.80;99.90;9.90;98419.00;;;;4888184;28;108103;-66
2024/04/01 06:11:43;;;;;;;17.27;5.63;;;9.90;99.90;9.90;98430.00;;;;4886036;28;100447;-66
2024/04/01 06:14:09;;;;;;;28.70;4.90;;;9.90;99.90;10.00;98422.00;;;;4885363;28;110345;-66
2024/04/01 06:16:39;;;;;;;19.17;5.07;;;10.00;99.90;10.10;98395.00;;;;4886085;28;102462;-67
2024/04/01 06:19:06;;;;;;;11.73;4.57;;;10.10;99.90;10.10;98397.00;;;;4885653;28;100705;-66
2024/04/01 06:21:32;;;;;;;17.23;4.77;;;10.10;99.90;10.20;98390.00;;;;4886878;28;105447;-65
2024/04/01 06:23:58;;;;;;;12.20;4.13;;;10.20;99.90;10.20;98382.00;;;;4887188;28;97185;-65
2024/04/01 06:26:26;;;;;;;14.63;4.67;;;10.20;99.90;10.30;98386.00;;;;4887696;28;93909;-66
2024/04/01 06:28:52;;;;;;;11.43;5.33;;;10.30;99.90;10.30;98378.00;;;;4888238;28;93619;-66
2024/04/01 06:31:17;;;;;;;13.77;5.03;;;10.20;99.90;10.40;98370.00;;;;4885775;28;93045;-65
2024/04/01 06:33:43;;;;;;;19.30;5.50;;;10.30;99.90;10.40;98375.00;;;;4884874;28;114769;-65
2024/04/01 06:36:12;;;;;;;11.50;5.47;;;10.40;99.90;10.50;98379.00;;;;4884963;28;92913;-66
2024/04/01 06:38:39;;;;;;;17.23;4.10;;;10.50;99.90;10.50;98378.00;;;;4886440;28;93147;-66
2024/04/01 06:41:05;;;;;;;8.17;3.70;;;10.50;99.90;10.60;98388.00;;;;4890085;28;107132;-67
2024/04/01 06:43:32;;;;;;;16.50;4.87;;;10.60;99.90;10.70;98390.00;;;;4890373;28;109439;-65
2024/04/01 06:46:00;;;;;;;9.50;4.60;;;10.70;99.90;10.80;98393.00;;;;4892394;28;93402;-66
2024/04/01 06:48:26;;;;;;;4.30;3.73;;;10.80;99.90;10.90;98385.00;;;;4891676;28;94152;-66
2024/04/01 06:50:53;;;;;;;12.17;4.03;;;10.80;99.90;10.90;98384.00;;;;4892842;28;93812;-66
2024/04/01 06:53:19;;;;;;;14.13;5.07;;;10.90;99.90;11.00;98381.00;;;;4892010;28;93418;-66
2024/04/01 06:55:46;;;;;;;8.23;3.83;;;11.00;99.90;11.10;98383.00;;;;4891892;28;92992;-65
2024/04/01 06:58:12;;;;;;;11.07;3.90;;;11.10;99.90;11.10;98377.00;;;;4889918;28;93520;-65
2024/04/01 07:00:39;;;;;;;11.00;4.60;;;11.10;99.90;11.20;98363.00;;;;4893427;28;96904;-65
2024/04/01 07:03:06;;;;;;;8.37;4.07;;;11.20;99.90;11.30;98362.00;;;;4893063;28;93052;-66
2024/04/01 07:05:32;;;;;;;12.80;4.13;;;11.20;99.90;11.30;98356.00;;;;4890696;28;100764;-66
2024/04/01 07:07:59;;;;;;;18.10;4.90;;;11.30;99.90;11.40;98360.00;;;;4890223;28;94355;-65
2024/04/01 07:10:29;;;;;;;17.60;5.07;;;11.40;99.90;11.50;98357.00;;;;4890394;28;94565;-66
2024/04/01 07:12:55;;;;;;;25.03;5.30;;;11.40;99.90;11.50;98350.00;;;;4887917;28;99202;-65
2024/04/01 07:15:22;;;;;;;23.43;5.07;;;11.50;99.90;11.60;98340.00;;;;4889929;28;94128;-64
2024/04/01 07:17:47;;;;;;;7.93;3.77;;;11.60;99.90;11.70;98326.00;;;;4889426;28;114321;-64
2024/04/01 07:20:13;;;;;;;13.00;5.00;;;11.70;99.90;11.80;98317.00;;;;4889149;28;122000;-65
2024/04/01 07:22:40;;;;;;;9.87;3.80;;;11.70;99.90;11.90;98315.00;;;;4888928;28;103026;-65
2024/04/01 07:25:06;;;;;;;7.13;3.27;;;11.80;99.90;11.90;98307.00;;;;4889135;28;110199;-66
2024/04/01 07:27:36;;;;;;;8.87;3.67;;;11.90;99.90;12.00;98295.00;;;;4889199;28;95718;-66
2024/04/01 07:30:07;;;;;;;10.33;4.13;;;11.90;99.90;12.10;98293.00;;;;4891218;28;93232;-66
2024/04/01 07:32:34;;;;;;;7.90;3.83;;;12.00;99.90;12.10;98299.00;;;;4888867;28;92453;-65
2024/04/01 07:35:01;;;;;;;18.07;3.43;;;12.10;99.90;12.20;98302.00;;;;4890000;28;93208;-66
2024/04/01 07:37:27;;;;;;;6.60;3.10;;;12.20;99.90;12.30;98296.00;;;;4889099;28;104925;-67
2024/04/01 07:39:57;;;;;;;5.53;3.80;;;12.30;99.90;12.40;98297.00;;;;4889658;28;94150;-66
2024/04/01 07:42:23;;;;;;;9.03;3.57;;;12.40;99.90;12.60;98292.00;;;;4889721;28;93405;-66
2024/04/01 07:44:50;;;;;;;8.00;4.03;;;12.50;99.90;12.70;98288.00;;;;4888777;28;93386;-66
2024/04/01 07:47:16;;;;;;;10.57;4.03;;;12.60;99.90;12.80;98293.00;;;;4889788;28;108179;-66
2024/04/01 07:49:42;;;;;;;9.23;3.03;;;12.70;99.90;12.90;98304.00;;;;4888468;28;106295;-66
2024/04/01 07:52:09;;;;;;;9.23;2.97;;;12.80;99.90;13.10;98314.00;;;;4889837;28;109837;-65
2024/04/01 07:54:35;;;;;;;11.30;3.13;;;13.00;99.90;13.20;98318.00;;;;4889723;28;93604;-65
2024/04/01 07:57:02;;;;;;;16.80;3.63;;;13.10;99.90;13.40;98318.00;;;;4889117;28;122303;-66
2024/04/01 07:59:32;;;;;;;5.70;2.73;;;13.30;99.90;13.50;98315.00;;;;4889424;28;92962;-66
2024/04/01 08:02:00;;;;;;;8.38;3.47;;;13.40;99.90;13.70;98313.00;;;;4891567;28;92869;-66
2024/04/01 08:04:29;;;;;;;5.45;2.92;;;13.60;99.90;13.80;98304.00;;;;4887233;28;94035;-66
2024/04/01 08:06:55;;;;;;;4.03;1.55;;;13.70;99.90;14.00;98291.00;;;;4884888;28;122690;-66
2024/04/01 08:09:22;;;;;;;13.48;3.38;;;13.90;99.90;14.20;98296.00;;;;4891586;28;93500;-66
2024/04/01 08:11:49;;;;;;;13.57;2.70;;;14.00;99.90;14.30;98284.00;;;;4905095;28;92897;-65
2024/04/01 08:14:17;;;;;;;5.13;3.17;;;14.20;99.90;14.50;98287.00;;;;4889037;28;93621;-67
2024/04/01 08:16:43;;;;;;;2.95;2.25;;;14.30;99.90;14.70;98275.00;;;;4886235;28;113219;-65
2024/04/01 08:19:09;;;;;;;6.75;2.22;;;14.50;99.90;14.90;98258.00;;;;4888347;28;123498;-65
2024/04/01 08:21:35;;;;;;;4.82;2.00;;;14.70;99.90;15.00;98269.00;;;;4890666;28;92243;-66
2024/04/01 08:24:01;;;;;;;4.32;2.22;;;14.90;99.90;15.20;98272.00;;;;4890162;28;93875;-66
2024/04/01 08:26:26;;;;;;;3.42;2.20;;;15.00;99.90;15.30;98280.00;;;;4890421;28;93316;-65
2024/04/01 08:28:52;;;;;;;6.35;2.90;;;15.20;99.90;15.40;98275.00;;;;4886368;28;121426;-65
2024/04/01 08:31:18;;;;;;;6.55;2.50;;;15.30;99.90;15.50;98285.00;;;;4887940;28;110387;-65
2024/04/01 08:33:44;;;;;;;5.50;2.42;;;15.40;99.90;15.60;98290.00;;;;4889275;28;93184;-65
2024/04/01 08:36:09;;;;;;;4.82;2.20;;;15.40;99.90;15.80;98283.00;;;;4889780;28;101043;-65
2024/04/01 08:38:36;;;;;;;5.30;2.10;;;15.60;99.90;15.90;98283.00;;;;4888703;28;93065;-65
2024/04/01 08:41:31;;;;;;;2.85;1.30;;;15.70;99.90;16.00;98287.00;;;;4889356;28;93052;-66
2024/04/01 08:44:14;;;;;;;8.77;1.98;;;15.80;99.90;16.10;98278.00;;;;4887628;28;102674;-65
2024/04/01 08:46:50;;;;;;;7.22;1.95;;;16.00;99.90;16.30;98270.00;;;;4890466;28;93328;-66
2024/04/01 08:49:27;;;;;;;7.82;1.50;;;16.10;99.90;16.40;98278.00;;;;4888442;28;93105;-65
2024/04/01 08:51:56;;;;;;;3.13;1.83;;;16.20;99.90;16.60;98264.00;;;;4889415;28;93151;-66
2024/04/01 08:54:22;;;;;;;11.00;1.73;;;16.40;99.90;16.80;98266.00;;;;4888556;28;93840;-65
2024/04/01 08:56:47;;;;;;;2.28;1.05;;;16.60;99.90;16.90;98252.00;;;;4886163;28;122728;-66
2024/04/01 08:59:13;;;;;;;3.17;1.30;;;16.70;99.90;17.10;98255.00;;;;4887363;28;122710;-66
2024/04/01 09:01:39;;;;;;;2.13;0.68;;;16.80;99.90;17.20;98239.00;;;;4887986;28;108765;-65
2024/04/01 09:04:05;;;;;;;8.77;1.48;;;17.00;99.90;17.40;98225.00;;;;4888692;28;109043;-66
2024/04/01 09:06:30;;;;;;;2.85;1.33;;;17.20;98.10;17.70;98227.00;;;;4889103;28;93515;-66
2024/04/01 09:08:57;;;;;;;2.88;1.15;;;17.40;97.40;18.00;98221.00;;;;4887166;28;121192;-66
2024/04/01 09:11:27;;;;;;;8.00;1.33;;;17.70;96.00;18.30;98213.00;;;;4888794;28;109426;-67
2024/04/01 09:13:53;;;;;;;2.03;1.10;;;18.00;94.90;18.50;98214.00;;;;4881604;28;93516;-65
2024/04/01 09:16:27;;;;;;;2.55;1.30;;;18.20;93.30;18.70;98208.00;;;;4887576;28;102624;-65
2024/04/01 09:18:53;;;;;;;0.82;0.73;;;18.50;91.80;18.90;98202.00;;;;4884496;28;94189;-66
2024/04/01 09:21:21;;;;;;;2.45;1.10;;;18.60;91.30;19.00;98186.00;;;;4888658;28;92780;-66
2024/04/01 09:23:48;;;;;;;4.00;1.30;;;18.80;89.90;19.10;98161.00;;;;4882047;28;92956;-65
2024/04/01 09:26:14;;;;;;;3.10;1.23;;;18.80;86.00;19.10;98184.00;;;;4887039;28;94359;-65
2024/04/01 09:28:40;;;;;;;2.13;1.00;;;18.90;85.30;19.10;98175.00;;;;4889153;28;94004;-65
2024/04/01 09:31:08;;;;;;;4.20;1.27;;;18.90;85.60;19.10;98179.00;;;;4889556;28;111206;-66
2024/04/01 09:33:34;;;;;;;5.13;1.70;;;18.90;84.40;19.10;98188.00;;;;4885675;28;101719;-65
2024/04/01 09:36:00;;;;;;;1.67;0.95;;;18.90;83.30;19.20;98175.00;;;;4887844;28;93151;-65
2024/04/01 09:38:26;;;;;;;2.92;1.13;;;19.00;82.30;19.20;98177.00;;;;4881774;28;94026;-65
2024/04/01 09:40:57;;;;;;;14.80;1.25;;;19.00;81.40;19.30;98182.00;;;;4869031;28;111007;-66
2024/04/01 09:43:30;;;;;;;4.90;1.13;;;19.10;82.20;19.40;98165.00;;;;4886000;28;94199;-65
2024/04/01 09:45:57;;;;;;;4.28;0.77;;;19.20;80.80;19.40;98159.00;;;;4886659;28;93621;-65
2024/04/01 09:48:26;;;;;;;3.40;1.25;;;19.20;78.30;19.50;98151.00;;;;4887101;28;105792;-66
2024/04/01 09:50:58;;;;;;;2.15;0.73;;;19.20;77.50;19.50;98161.00;;;;4884738;28;93195;-66
2024/04/01 09:53:25;;;;;;;6.40;2.45;;;19.60;77.00;19.70;98173.00;;;;4887354;28;98214;-66
2024/04/01 09:56:28;;;;;;;3.70;1.45;;;19.40;75.10;19.80;98194.00;;;;4887832;28;93017;-65
2024/04/01 09:59:12;;;;;;;6.93;1.60;;;19.50;74.00;19.80;98196.00;;;;4887257;28;93094;-66
2024/04/01 10:02:13;;;;;;;3.17;1.20;;;19.60;73.20;19.70;98212.00;;;;4889367;28;92159;-65
2024/04/01 10:04:48;;;;;;;3.15;1.75;;;19.60;72.30;19.70;98205.00;;;;4884567;28;93029;-66
2024/04/01 10:07:38;;;;;;;1.95;1.20;;;19.50;71.80;19.60;98204.00;;;;4887023;28;106861;-65
2024/04/01 10:10:30;;;;;;;9.73;1.75;;;19.50;72.00;19.50;98212.00;;;;4886268;28;94914;-66
2024/04/01 10:13:39;;;;;;;8.18;1.80;;;19.40;72.30;19.40;98217.00;;;;4883359;28;105445;-65
2024/04/01 10:16:54;;;;;;;2.65;1.15;;;19.40;72.60;19.40;98221.00;;;;4889072;28;92987;-65
2024/04/01 10:20:17;;;;;;;3.15;1.35;;;19.30;73.10;19.30;98214.00;;;;4888971;28;93265;-66
2024/04/01 10:23:21;;;;;;;3.95;1.55;;;19.20;73.70;19.30;98228.00;;;;4887262;28;93452;-65
2024/04/01 10:26:33;;;;;;;5.68;1.50;;;19.20;73.20;19.30;98229.00;;;;4888053;28;102754;-68
2024/04/01 10:29:45;;;;;;;8.98;2.25;;;19.20;73.50;19.20;98230.00;;;;4887306;28;100290;-65
2024/04/01 10:33:03;;;;;;;4.53;1.30;;;19.10;73.30;19.10;98231.00;;;;4889833;28;92419;-65
2024/04/01 10:35:51;;;;;;;7.65;1.30;;;19.10;72.50;19.20;98235.00;;;;4890968;28;92983;-65
2024/04/01 10:39:09;;;;;;;12.15;2.00;;;19.00;74.50;19.20;98243.00;;;;4890476;28;93052;-65
2024/04/01 10:41:58;;;;;;;6.93;2.15;;;19.10;75.00;19.30;98227.00;;;;4888745;28;94195;-65
2024/04/01 10:45:34;;;;;;;6.05;1.15;;;19.20;75.00;19.30;98232.00;;;;4889409;28;116091;-65
2024/04/01 10:48:19;;;;;;;5.65;1.95;;;19.20;75.30;19.40;98240.00;;;;4888746;28;93083;-66
2024/04/01 10:51:51;;;;;;;2.53;0.80;;;19.30;75.00;19.40;98260.00;;;;4890643;28;93505;-65
2024/04/01 10:54:20;;;;;;;3.90;1.42;;;19.30;74.80;19.50;98273.00;;;;4889172;28;102057;-66
2024/04/01 10:57:11;;;;;;;6.18;1.45;;;19.30;75.10;19.40;98258.00;;;;4891948;28;122657;-66
2024/04/01 11:00:13;;;;;;;7.28;1.83;;;19.30;74.70;19.50;98271.00;;;;4889036;28;93470;-66
2024/04/01 11:03:20;;;;;;;2.70;1.33;;;19.30;74.40;19.50;98269.00;;;;4891004;28;92464;-66
2024/04/01 11:06:23;;;;;;;1.73;1.20;;;19.30;73.20;19.50;98260.00;;;;4890694;28;93154;-65